createdAt,value
2022-08-11T00:02:01.935Z,18.19
2022-08-11T00:04:36.994Z,18.25
2022-08-11T00:07:06.850Z,18.32
2022-08-11T00:09:38.914Z,18.27
2022-08-11T00:12:14.888Z,18.38
2022-08-11T00:14:44.715Z,18.29
2022-08-11T00:17:15.794Z,18.33
2022-08-11T00:20:11.994Z,18.38
2022-08-11T00:22:37.754Z,18.16
2022-08-11T00:25:11.214Z,18.20
2022-08-11T00:27:42.200Z,18.33
2022-08-11T00:30:12.211Z,18.27
2022-08-11T00:32:42.018Z,18.25
2022-08-11T00:35:52.470Z,18.32
2022-08-11T00:38:02.331Z,18.29
2022-08-11T00:40:37.944Z,18.23
2022-08-11T00:43:20.355Z,18.26
2022-08-11T00:46:10.122Z,18.14
2022-08-11T00:49:00.622Z,18.14
2022-08-11T00:52:04.909Z,18.03
2022-08-11T00:55:00.158Z,18.12
2022-08-11T00:57:57.993Z,17.96
2022-08-11T01:00:33.347Z,17.85
2022-08-11T01:03:20.007Z,18.03
2022-08-11T01:06:17.900Z,17.98
2022-08-11T01:09:22.970Z,17.66
2022-08-11T01:12:24.438Z,17.75
2022-08-11T01:15:56.041Z,17.68
2022-08-11T01:18:51.955Z,17.48
2022-08-11T01:21:59.122Z,17.30
2022-08-11T01:24:52.639Z,17.51
2022-08-11T01:27:50.531Z,17.29
2022-08-11T01:30:57.129Z,17.33
2022-08-11T01:34:04.932Z,17.32
2022-08-11T01:37:31.133Z,17.34
2022-08-11T01:40:44.639Z,17.41
2022-08-11T01:44:21.421Z,17.27
2022-08-11T01:46:55.419Z,17.37
2022-08-11T01:50:09.619Z,17.22
2022-08-11T01:52:30.140Z,17.33
2022-08-11T01:55:13.775Z,17.23
2022-08-11T01:57:49.928Z,17.23
2022-08-11T02:00:21.829Z,17.14
2022-08-11T02:02:57.646Z,17.09
2022-08-11T02:05:37.849Z,17.06
2022-08-11T02:08:15.971Z,16.97
2022-08-11T02:11:12.628Z,17.06
2022-08-11T02:13:47.313Z,16.97
2022-08-11T02:16:27.830Z,16.79
2022-08-11T02:19:24.001Z,16.70
2022-08-11T02:22:13.307Z,16.57
2022-08-11T02:24:48.780Z,16.57
2022-08-11T02:27:23.168Z,16.52
2022-08-11T02:30:04.939Z,16.58
2022-08-11T02:32:55.421Z,16.60
2022-08-11T02:35:28.900Z,16.52
2022-08-11T02:38:15.360Z,16.49
2022-08-11T02:40:53.514Z,16.61
2022-08-11T02:43:32.309Z,16.64
2022-08-11T02:46:18.720Z,16.57
2022-08-11T02:49:18.480Z,16.56
2022-08-11T02:52:02.276Z,16.52
2022-08-11T02:54:47.021Z,16.47
2022-08-11T02:57:25.426Z,16.47
2022-08-11T02:59:58.174Z,16.34
2022-08-11T03:02:41.160Z,16.30
2022-08-11T03:05:23.286Z,16.21
2022-08-11T03:08:09.395Z,16.28
2022-08-11T03:11:07.493Z,16.28
2022-08-11T03:14:00.677Z,16.27
2022-08-11T03:16:48.151Z,16.17
2022-08-11T03:19:24.131Z,16.11
2022-08-11T03:22:01.482Z,16.02
2022-08-11T03:24:40.466Z,16.05
2022-08-11T03:27:11.825Z,15.93
2022-08-11T03:29:54.613Z,15.88
2022-08-11T03:32:29.853Z,15.95
2022-08-11T03:35:01.583Z,15.82
2022-08-11T03:37:51.959Z,15.73
2022-08-11T03:41:06.182Z,15.85
2022-08-11T03:44:05.458Z,15.76
2022-08-11T03:46:57.599Z,15.83
2022-08-11T03:49:36.145Z,15.87
2022-08-11T03:52:14.443Z,15.91
2022-08-11T03:54:55.482Z,15.81
2022-08-11T03:58:25.739Z,15.95
2022-08-11T04:01:36.193Z,15.77
2022-08-11T04:04:39.789Z,15.69
2022-08-11T04:08:06.676Z,15.59
2022-08-11T04:11:07.823Z,15.60
2022-08-11T04:14:30.391Z,15.53
2022-08-11T04:17:19.586Z,15.49
2022-08-11T04:20:19.431Z,15.46
2022-08-11T04:23:03.514Z,15.47
2022-08-11T04:25:58.421Z,15.44
2022-08-11T04:28:56.100Z,15.58
2022-08-11T04:31:52.288Z,15.57
2022-08-11T04:34:50.673Z,15.63
2022-08-11T04:37:53.298Z,15.74
2022-08-11T04:40:44.974Z,15.88
2022-08-11T04:44:02.807Z,15.95
2022-08-11T04:48:02.039Z,16.08
2022-08-11T04:51:00.787Z,16.10
2022-08-11T04:54:18.928Z,16.16
2022-08-11T04:57:06.795Z,16.20
2022-08-11T05:00:07.170Z,16.24
2022-08-11T05:03:10.586Z,16.45
2022-08-11T05:06:02.758Z,16.55
2022-08-11T05:09:07.834Z,16.65
2022-08-11T05:12:08.893Z,16.87
2022-08-11T05:14:59.935Z,16.97
2022-08-11T05:17:54.435Z,17.03
2022-08-11T05:20:42.663Z,17.14
2022-08-11T05:23:30.126Z,17.23
2022-08-11T05:26:48.022Z,17.25
2022-08-11T05:29:45.335Z,17.49
2022-08-11T05:32:35.372Z,17.50
2022-08-11T05:35:07.457Z,17.72
2022-08-11T05:37:39.547Z,17.62
2022-08-11T05:40:27.477Z,17.81
2022-08-11T05:43:16.954Z,17.93
2022-08-11T05:46:14.557Z,17.98
2022-08-11T05:49:00.401Z,18.01
2022-08-11T05:51:55.370Z,18.02
2022-08-11T05:54:46.783Z,18.13
2022-08-11T05:57:42.342Z,18.27
2022-08-11T06:00:12.004Z,18.47
2022-08-11T06:02:45.473Z,18.68
2022-08-11T06:05:14.251Z,19.03
2022-08-11T06:07:49.236Z,19.18
2022-08-11T06:10:28.273Z,19.42
2022-08-11T06:12:58.223Z,19.39
2022-08-11T06:15:27.612Z,19.24
2022-08-11T06:17:58.612Z,19.19
2022-08-11T06:20:27.099Z,19.52
2022-08-11T06:23:00.309Z,19.69
2022-08-11T06:25:32.821Z,19.91
2022-08-11T06:28:01.459Z,19.84
2022-08-11T06:30:40.714Z,20.07
2022-08-11T06:33:13.180Z,20.16
2022-08-11T06:35:49.392Z,20.33
2022-08-11T06:38:29.193Z,20.40
2022-08-11T06:41:17.895Z,20.65
2022-08-11T06:43:56.112Z,20.80
2022-08-11T06:46:31.499Z,20.96
2022-08-11T06:49:03.703Z,20.71
2022-08-11T06:51:32.774Z,20.72
2022-08-11T06:54:05.126Z,21.22
2022-08-11T06:57:12.517Z,21.54
2022-08-11T07:00:00.939Z,21.35
2022-08-11T07:02:33.670Z,21.71
2022-08-11T07:05:09.278Z,22.20
2022-08-11T07:08:33.827Z,22.03
2022-08-11T07:11:40.057Z,22.08
2022-08-11T07:14:26.969Z,22.19
2022-08-11T07:16:55.980Z,22.23
2022-08-11T07:19:51.012Z,22.15
2022-08-11T07:22:47.454Z,22.29
2022-08-11T07:25:34.838Z,23.05
2022-08-11T07:28:22.355Z,22.89
2022-08-11T07:30:58.439Z,23.04
2022-08-11T07:34:06.499Z,23.37
2022-08-11T07:36:20.668Z,23.06
2022-08-11T07:38:56.348Z,22.88
2022-08-11T07:41:28.590Z,23.44
2022-08-11T07:44:08.781Z,23.58
2022-08-11T07:46:58.031Z,23.08
2022-08-11T07:49:45.539Z,23.61
2022-08-11T07:52:30.386Z,23.87
2022-08-11T07:55:02.219Z,24.45
2022-08-11T07:58:14.622Z,23.90
2022-08-11T08:00:55.687Z,23.53
2022-08-11T08:03:53.641Z,24.59
2022-08-11T08:06:41.147Z,24.64
2022-08-11T08:09:28.174Z,24.84
2022-08-11T08:12:15.341Z,25.59
2022-08-11T08:15:01.517Z,25.49
2022-08-11T08:18:09.349Z,25.16
2022-08-11T08:20:39.150Z,24.47
2022-08-11T08:23:07.965Z,24.11
2022-08-11T08:25:39.115Z,25.31
2022-08-11T08:28:10.986Z,25.89
2022-08-11T08:30:51.091Z,25.61
2022-08-11T08:33:23.189Z,25.56
2022-08-11T08:36:11.145Z,25.95
2022-08-11T08:38:40.541Z,26.21
2022-08-11T08:41:09.368Z,26.73
2022-08-11T08:43:48.638Z,25.98
2022-08-11T08:46:20.368Z,27.20
2022-08-11T08:48:49.164Z,27.24
2022-08-11T08:52:02.395Z,27.49
2022-08-11T08:54:30.026Z,26.98
2022-08-11T08:56:58.417Z,27.50
2022-08-11T08:59:47.379Z,28.12
2022-08-11T09:02:17.289Z,28.05
2022-08-11T09:04:47.914Z,27.12
2022-08-11T09:07:18.411Z,28.31
2022-08-11T09:09:50.316Z,28.94
2022-08-11T09:12:38.439Z,26.02
2022-08-11T09:15:11.583Z,27.05
2022-08-11T09:17:42.433Z,27.94
2022-08-11T09:20:14.223Z,26.97
2022-08-11T09:23:41.674Z,27.93
2022-08-11T09:26:08.663Z,28.81
2022-08-11T09:28:37.849Z,28.88
2022-08-11T09:31:10.036Z,29.63
2022-08-11T09:33:38.407Z,29.81
2022-08-11T09:36:27.582Z,28.42
2022-08-11T09:39:14.442Z,29.19
2022-08-11T09:42:00.489Z,28.75
2022-08-11T09:44:49.512Z,28.35
2022-08-11T09:47:24.384Z,28.30
2022-08-11T09:49:55.089Z,29.20
2022-08-11T09:52:25.022Z,30.36
2022-08-11T09:54:54.385Z,28.89
2022-08-11T09:57:41.173Z,28.66
2022-08-11T10:00:13.384Z,27.45
2022-08-11T10:02:47.065Z,28.19
2022-08-11T10:05:35.736Z,29.29
2022-08-11T10:08:04.768Z,28.20
2022-08-11T10:10:36.831Z,29.74
2022-08-11T10:14:29.352Z,29.15
2022-08-11T10:16:03.606Z,30.51
2022-08-11T10:18:52.619Z,30.38
2022-08-11T10:21:29.087Z,29.29
2022-08-11T10:24:17.194Z,29.52
2022-08-11T10:26:54.285Z,30.35
2022-08-11T10:29:45.249Z,31.44
2022-08-11T10:32:46.322Z,31.11
2022-08-11T10:35:29.215Z,31.82
2022-08-11T10:38:07.485Z,30.78
2022-08-11T10:40:39.862Z,30.02
2022-08-11T10:43:13.318Z,31.15
2022-08-11T10:46:15.880Z,29.70
2022-08-11T10:48:44.141Z,30.51
2022-08-11T10:51:50.561Z,31.13
2022-08-11T10:54:24.226Z,31.04
2022-08-11T10:57:11.455Z,31.31
2022-08-11T10:59:39.720Z,31.11
2022-08-11T11:02:07.698Z,32.19
2022-08-11T11:04:50.923Z,33.32
2022-08-11T11:07:24.620Z,31.18
2022-08-11T11:09:56.911Z,31.20
2022-08-11T11:12:45.569Z,31.37
2022-08-11T11:15:32.900Z,32.12
2022-08-11T11:18:06.911Z,32.08
2022-08-11T11:20:43.815Z,29.97
2022-08-11T11:23:21.401Z,30.52
2022-08-11T11:26:11.188Z,32.01
2022-08-11T11:29:04.128Z,30.82
2022-08-11T11:31:47.141Z,32.91
2022-08-11T11:34:24.692Z,34.08
2022-08-11T11:36:56.726Z,33.72
2022-08-11T11:39:28.405Z,34.73
2022-08-11T11:41:59.079Z,35.69
2022-08-11T11:44:28.195Z,36.27
2022-08-11T11:46:56.872Z,37.10
2022-08-11T11:49:28.155Z,36.84
2022-08-11T11:51:58.493Z,33.49
2022-08-11T11:54:30.970Z,37.04
2022-08-11T11:57:20.940Z,36.06
2022-08-11T12:00:08.236Z,35.73
2022-08-11T12:02:37.024Z,34.41
2022-08-11T12:05:06.369Z,34.54
2022-08-11T12:07:56.938Z,36.41
2022-08-11T12:10:45.763Z,34.02
2022-08-11T12:13:32.448Z,34.69
2022-08-11T12:16:33.990Z,35.93
2022-08-11T12:18:54.120Z,35.46
2022-08-11T12:21:22.638Z,36.47
2022-08-11T12:24:08.705Z,36.04
2022-08-11T12:27:16.566Z,35.44
2022-08-11T12:29:54.242Z,33.80
2022-08-11T12:32:24.258Z,35.53
2022-08-11T12:34:52.741Z,36.64
2022-08-11T12:37:24.824Z,35.08
2022-08-11T12:40:49.495Z,36.58
2022-08-11T12:43:37.783Z,34.62
2022-08-11T12:46:09.482Z,35.04
2022-08-11T12:49:02.028Z,36.24
2022-08-11T12:52:11.726Z,36.23
2022-08-11T12:54:51.387Z,37.00
2022-08-11T12:57:44.915Z,37.54
2022-08-11T13:00:34.113Z,37.69
2022-08-11T13:03:20.976Z,38.24
2022-08-11T13:05:50.437Z,36.85
2022-08-11T13:08:18.728Z,38.16
2022-08-11T13:11:05.369Z,37.49
2022-08-11T13:13:54.031Z,37.65
2022-08-11T13:16:24.810Z,38.57
2022-08-11T13:18:53.767Z,36.35
2022-08-11T13:21:22.817Z,35.13
2022-08-11T13:24:01.919Z,37.88
2022-08-11T13:26:43.601Z,37.99
2022-08-11T13:29:19.638Z,36.30
2022-08-11T13:31:49.695Z,38.29
2022-08-11T13:34:19.965Z,36.13
2022-08-11T13:36:50.273Z,37.09
2022-08-11T13:39:19.150Z,38.37
2022-08-11T13:41:48.538Z,36.62
2022-08-11T13:44:24.809Z,35.97
2022-08-11T13:46:57.335Z,36.59
2022-08-11T13:49:26.134Z,37.50
2022-08-11T13:51:55.240Z,35.96
2022-08-11T13:54:24.871Z,36.26
2022-08-11T13:56:56.057Z,36.46
2022-08-11T13:59:30.902Z,36.59
2022-08-11T14:02:22.217Z,37.48
2022-08-11T14:04:57.417Z,35.41
2022-08-11T14:07:28.627Z,36.87
2022-08-11T14:10:00.225Z,36.65
2022-08-11T14:12:47.868Z,36.70
2022-08-11T14:15:20.000Z,37.29
2022-08-11T14:17:55.963Z,36.70
2022-08-11T14:20:39.288Z,35.52
2022-08-11T14:23:11.049Z,37.01
2022-08-11T14:26:02.507Z,37.14
2022-08-11T14:28:37.427Z,37.16
2022-08-11T14:31:09.389Z,37.88
2022-08-11T14:33:59.528Z,35.70
2022-08-11T14:36:29.766Z,36.89
2022-08-11T14:38:58.210Z,36.15
2022-08-11T14:42:07.412Z,36.85
2022-08-11T14:44:52.892Z,37.28
2022-08-11T14:47:23.798Z,36.90
2022-08-11T14:50:09.713Z,34.99
2022-08-11T14:52:39.412Z,35.10
2022-08-11T14:55:27.216Z,33.65
2022-08-11T14:57:57.499Z,34.60
2022-08-11T15:00:26.591Z,34.66
2022-08-11T15:03:13.714Z,34.22
2022-08-11T15:05:57.591Z,34.85
2022-08-11T15:08:48.541Z,34.31
2022-08-11T15:11:35.292Z,35.45
2022-08-11T15:14:06.229Z,36.18
2022-08-11T15:16:53.570Z,36.28
2022-08-11T15:19:22.202Z,36.33
2022-08-11T15:22:27.780Z,34.92
2022-08-11T15:24:55.958Z,34.74
2022-08-11T15:27:43.201Z,33.93
2022-08-11T15:30:33.165Z,31.74
2022-08-11T15:33:24.726Z,31.04
2022-08-11T15:36:11.179Z,30.44
2022-08-11T15:38:45.811Z,30.12
2022-08-11T15:41:35.873Z,29.68
2022-08-11T15:44:38.737Z,29.58
2022-08-11T15:47:14.350Z,30.07
2022-08-11T15:50:10.893Z,29.78
2022-08-11T15:52:43.996Z,29.65
2022-08-11T15:55:13.324Z,29.18
2022-08-11T15:58:00.145Z,29.23
2022-08-11T16:00:46.494Z,28.91
2022-08-11T16:03:54.445Z,28.80
2022-08-11T16:06:23.923Z,28.78
2022-08-11T16:08:56.334Z,29.05
2022-08-11T16:11:27.607Z,28.76
2022-08-11T16:14:14.300Z,28.48
2022-08-11T16:16:42.777Z,28.22
2022-08-11T16:19:12.225Z,28.26
2022-08-11T16:21:43.101Z,28.25
2022-08-11T16:26:30.482Z,28.01
2022-08-11T16:27:13.148Z,28.15
2022-08-11T16:29:45.631Z,28.25
2022-08-11T16:32:20.560Z,27.95
2022-08-11T16:35:13.734Z,27.79
2022-08-11T16:38:00.113Z,28.01
2022-08-11T16:40:29.494Z,27.73
2022-08-11T16:43:17.670Z,27.84
2022-08-11T16:46:04.384Z,27.74
2022-08-11T16:48:38.249Z,27.80
2022-08-11T16:51:08.094Z,27.71
2022-08-11T16:53:45.959Z,27.64
2022-08-11T16:56:31.224Z,27.49
2022-08-11T16:59:14.579Z,27.53
2022-08-11T17:01:44.745Z,27.27
2022-08-11T17:04:38.059Z,27.15
2022-08-11T17:07:42.129Z,27.26
2022-08-11T17:10:51.089Z,27.02
2022-08-11T17:13:27.612Z,27.17
2022-08-11T17:16:08.529Z,27.11
2022-08-11T17:18:43.277Z,27.09
2022-08-11T17:21:16.065Z,27.06
2022-08-11T17:23:47.118Z,26.96
2022-08-11T17:26:19.161Z,27.05
2022-08-11T17:28:51.748Z,27.11
2022-08-11T17:31:40.012Z,27.16
2022-08-11T17:34:26.396Z,27.20
2022-08-11T17:36:55.752Z,26.93
2022-08-11T17:39:29.319Z,26.97
2022-08-11T17:42:16.262Z,26.87
2022-08-11T17:45:03.184Z,26.78
2022-08-11T17:47:51.390Z,26.80
2022-08-11T17:50:19.975Z,26.61
2022-08-11T17:53:06.537Z,26.56
2022-08-11T17:55:54.405Z,26.48
2022-08-11T17:58:41.720Z,26.48
2022-08-11T18:01:12.151Z,26.46
2022-08-11T18:03:56.393Z,26.32
2022-08-11T18:06:33.750Z,26.36
2022-08-11T18:09:22.544Z,26.35
2022-08-11T18:12:10.837Z,26.25
2022-08-11T18:14:59.219Z,26.09
2022-08-11T18:17:44.609Z,25.91
2022-08-11T18:20:31.164Z,25.71
2022-08-11T18:23:20.217Z,25.78
2022-08-11T18:26:07.645Z,25.76
2022-08-11T18:28:58.146Z,25.79
2022-08-11T18:31:44.465Z,25.57
2022-08-11T18:34:34.930Z,25.49
2022-08-11T18:37:29.084Z,25.10
2022-08-11T18:40:17.306Z,24.80
2022-08-11T18:43:05.750Z,24.51
2022-08-11T18:46:06.460Z,24.46
2022-08-11T18:48:54.971Z,24.33
2022-08-11T18:51:41.470Z,23.81
2022-08-11T18:54:30.254Z,23.65
2022-08-11T18:57:19.683Z,23.49
2022-08-11T19:00:07.191Z,23.45
2022-08-11T19:02:55.710Z,23.28
2022-08-11T19:06:35.841Z,23.16
2022-08-11T19:08:50.136Z,23.22
2022-08-11T19:11:42.734Z,23.35
2022-08-11T19:14:31.637Z,22.97
2022-08-11T19:17:43.498Z,22.86
2022-08-11T19:20:29.983Z,22.83
2022-08-11T19:23:17.312Z,22.78
2022-08-11T19:26:03.806Z,22.92
2022-08-11T19:28:52.839Z,22.76
2022-08-11T19:31:44.507Z,22.68
2022-08-11T19:34:31.984Z,22.69
2022-08-11T19:37:24.061Z,22.44
2022-08-11T19:40:12.304Z,22.31
2022-08-11T19:42:59.785Z,22.58
2022-08-11T19:45:52.956Z,22.36
2022-08-11T19:48:39.557Z,22.22
2022-08-11T19:51:26.866Z,22.21
2022-08-11T19:54:13.344Z,22.20
2022-08-11T19:57:00.160Z,22.09
2022-08-11T19:59:46.418Z,21.95
2022-08-11T20:02:33.120Z,22.03
2022-08-11T20:05:18.871Z,21.72
2022-08-11T20:08:04.701Z,21.78
2022-08-11T20:10:52.086Z,21.79
2022-08-11T20:13:41.596Z,21.98
2022-08-11T20:16:29.630Z,21.87
2022-08-11T20:19:18.188Z,21.83
2022-08-11T20:22:08.269Z,21.93
2022-08-11T20:24:56.591Z,21.69
2022-08-11T20:27:43.045Z,21.85
2022-08-11T20:30:29.462Z,21.85
2022-08-11T20:33:15.433Z,21.87
2022-08-11T20:36:02.547Z,21.73
2022-08-11T20:38:51.310Z,21.62
2022-08-11T20:41:58.481Z,21.51
2022-08-11T20:44:45.937Z,21.52
2022-08-11T20:47:59.167Z,21.58
2022-08-11T20:50:40.811Z,21.63
2022-08-11T20:53:29.286Z,21.62
2022-08-11T20:56:17.048Z,21.70
2022-08-11T20:59:21.737Z,21.87
2022-08-11T21:02:09.859Z,22.17
2022-08-11T21:04:56.333Z,22.37
2022-08-11T21:07:43.855Z,22.47
2022-08-11T21:10:44.654Z,22.51
2022-08-11T21:13:34.376Z,22.73
2022-08-11T21:16:25.400Z,22.66
2022-08-11T21:19:59.527Z,22.61
2022-08-11T21:22:29.049Z,22.27
2022-08-11T21:25:16.097Z,21.81
2022-08-11T21:28:06.236Z,21.63
2022-08-11T21:30:57.652Z,21.35
2022-08-11T21:33:46.058Z,21.22
2022-08-11T21:36:32.971Z,21.27
2022-08-11T21:39:20.377Z,21.32
2022-08-11T21:42:12.054Z,21.19
2022-08-11T21:45:01.023Z,21.08
2022-08-11T21:47:48.463Z,21.18
2022-08-11T21:50:33.843Z,21.53
2022-08-11T21:53:19.616Z,21.38
2022-08-11T21:56:05.425Z,21.26
2022-08-11T21:58:52.123Z,21.27
2022-08-11T22:01:39.840Z,21.24
2022-08-11T22:04:25.951Z,21.26
2022-08-11T22:07:11.705Z,21.50
2022-08-11T22:09:57.003Z,21.52
2022-08-11T22:12:45.325Z,21.49
2022-08-11T22:15:31.172Z,21.62
2022-08-11T22:18:20.067Z,21.67
2022-08-11T22:21:06.042Z,21.87
2022-08-11T22:23:56.456Z,21.95
2022-08-11T22:26:42.722Z,21.68
2022-08-11T22:29:50.881Z,21.75
2022-08-11T22:32:38.439Z,21.76
2022-08-11T22:35:28.688Z,21.80
2022-08-11T22:38:15.756Z,21.86
2022-08-11T22:41:01.592Z,21.84
2022-08-11T22:43:47.555Z,21.73
2022-08-11T22:46:33.881Z,21.55
2022-08-11T22:49:20.224Z,21.52
2022-08-11T22:52:09.018Z,21.54
2022-08-11T22:54:55.316Z,21.58
2022-08-11T22:57:55.170Z,21.31
2022-08-11T23:00:47.230Z,21.50
2022-08-11T23:03:37.446Z,21.60
2022-08-11T23:06:25.600Z,21.65
2022-08-11T23:09:12.156Z,21.68
2022-08-11T23:12:07.193Z,21.68
2022-08-11T23:14:56.311Z,21.53
2022-08-11T23:17:42.669Z,21.59
2022-08-11T23:20:36.975Z,21.57
2022-08-11T23:23:27.059Z,21.44
2022-08-11T23:26:14.656Z,21.38
2022-08-11T23:29:04.530Z,21.34
2022-08-11T23:31:53.877Z,21.22
2022-08-11T23:35:04.737Z,21.26
2022-08-11T23:37:45.455Z,21.06
2022-08-11T23:40:30.753Z,20.99
2022-08-11T23:43:18.747Z,21.02
2022-08-11T23:46:04.102Z,20.86
2022-08-11T23:48:50.582Z,20.66
2022-08-11T23:51:37.656Z,20.76
2022-08-11T23:54:27.208Z,20.87
2022-08-11T23:57:13.518Z,20.63
